Terminal Aerodrome Forecast
Issued by NWS Newport/Morehead City, NC

Home | Current Version | Previous Version | Graphics & Text | Print | Product List | Glossary On
Versions: 1 2 3 4 5 6 7 8 9 10 11 12 13 14 15 16 17 18 19
000
FTUS42 KMHX 191120
TAFEWN
TAF
KEWN 191120Z 1912/2012 23006KT P6SM SCT080
     FM191900 21008KT P6SM VCTS SCT040CB
     FM200100 26004KT P6SM BKN050
     FM200800 36007KT P6SM SKC=

USA.gov is the U.S. government's official web portal to all federal, state and local government web resources and services.